Forside
METAR-TAF:

METAR-TAF

Lufthavne :

Fairbanks, Alaska, USA

Breddekreds: 64-48-14N, længdekreds: 147-52-34W, højde: 132 m

Aktuelle vejr

Denne rapport blev lavet for 54 minutter siden, kl. 08:53 UTC
Vind 3 kt fra nordøst
Temperatur -8°C
Fugtighed 67%
Tryk 1020 hPa
Sigt: 16.1 km
skyfri

METAR: PAFA 200853Z 04003KT 10SM CLR M08/M13 A3013 RMK AO2 SLP212 T10781128 400331100 55003 PNO

Tid: 01:47 (09:47 UTC)

Vejrudsigter

Denne rapport blev lavet for 4 timer og 15 minutter siden, kl. 05:32 UTC
Foreløbig gælder fra 20 på 06 UTC til 21 på 12 UTC
Vind 4 kt fra nordnordøst
Sigt: 10 km
Nogle få skyer i en højde af 4000 ft
Fra 20 på 1600 UTC
Vind 4 kt fra nordnordøst
Sigt: 10 km
Nogle få skyer i en højde af 5000 ft
Spredte skyer i en højde af 10000 ft
Brudte skyer i en højde af 20000 ft

TAF: PAFA 200532Z 2006/2112 03004KT P6SM FEW040 FM201600 03004KT P6SM FEW050 SCT100 BKN200

Vejrobservationer og prognoser fra mere end 4000 lufthavne (METAR og TAF).

De gule og røde prikker repræsenterer de meteorologiske stationer.

Flyt musen over at se navnet på stationen.

Så klik over at se vejr observationer og prognoser.

At skifte det kort: Klik på de grønne knapper med et sort kors for at zoome ind; på den grønne knap med en bindestreg for at zoome ud; eller på de grønne pile for tilstødende kort.


METAR-TAF: